Flight Track Log - Related Links

Times and Time Zones

All times are in EDT time to prevent confusion due to time zone crossing. See the RPA4911 flight status page for this flight to view local times or setup timezone preferences in your user account.

Time Position Orientation Groundspeed Altitude Reporting Facility
EDT Latitude Longitude Course Direction KTS MPH feet Rate Location/Type
Thu 04:27:08 PM 40.6333 -74.2000 77° East 208 239 2,500  Level New York TRACON
Thu 04:28:08 PM 40.6333 -74.2833 270° West 214 246 4,600 1,350 Climbing New York TRACON
Thu 04:29:00 PM 41.0855 -74.1346 North  Level FlightAware Approximate
Thu 04:29:08 PM 40.6833 -74.3167 333° Northwest 280 322 5,200  Level New York TRACON
Thu 04:30:00 PM 41.1604 -74.0867 74° East  Level FlightAware Approximate
Thu 04:30:08 PM 40.7500 -74.2833 21° North 279 321 6,200  Level New York TRACON
Thu 04:31:00 PM 41.1833 -73.9566 90° East  Level FlightAware Approximate
Thu 04:31:08 PM 40.8167 -74.2667 11° North 272 313 7,000  Level New York TRACON
Thu 04:32:00 PM 41.2177 -73.8444 77° East  Level FlightAware Approximate
Thu 04:32:08 PM 40.9000 -74.2333 17° North 286 329 7,100  Level New York TRACON
Thu 04:33:08 PM 40.9667 -74.2000 21° North 283 326 7,100  Level New York TRACON
Thu 04:35:08 PM 41.1233 -74.2283 352° North 283 326 7,100  Level Boston Center
Thu 04:36:08 PM 41.2003 -74.2306 359° North 278 320 7,100 -45 Level Boston Center
Thu 04:37:20 PM 41.2778 -74.2078 12° North 278 320 7,000 -45 Descending Boston Center
Thu 04:38:20 PM 41.3594 -74.1797 14° North 273 314 7,000  Level Boston Center
Thu 04:39:20 PM 41.4431 -74.1653 North 273 314 7,000  Level Boston Center
Thu 04:40:20 PM 41.5142 -74.1478 10° North 278 320 7,000 1,150 Level Boston Center
Thu 04:41:20 PM 41.5939 -74.1250 12° North 273 314 9,300 1,500 Climbing Boston Center
Thu 04:42:20 PM 41.6669 -74.1047 12° North 266 306 10,000 350 Climbing Boston Center
Thu 04:43:20 PM 41.7508 -74.0819 11° North 282 325 10,000  Level Boston Center
Thu 04:44:20 PM 41.8428 -74.0564 12° North 327 376 10,000  Level Boston Center
Thu 04:45:00 PM 41.9056 -74.0411 10° North 342 394 10,000  Level Boston Center
Thu 04:46:00 PM 41.9978 -74.0128 13° North 339 390 10,000  Level Boston Center
Thu 04:47:01 PM 42.0875 -73.9900 11° North 338 389 10,000 52 Level Boston Center
Thu 04:47:56 PM 42.1733 -73.9669 11° North 339 390 10,100 -104 Climbing Boston Center
Thu 04:48:56 PM 42.2611 -73.9578 North 306 352 9,800 -614 Descending Boston Center
Thu 04:50:03 PM 42.3486 -73.9569 360° North 267 307 8,800 -992 Descending Boston Center
Thu 04:51:03 PM 42.4278 -73.9619 357° North 276 318 7,700 -1,041 Descending Boston Center
Thu 04:52:04 PM 42.5047 -73.9664 358° North 276 318 6,700 -1,279 Descending Boston Center
Thu 04:53:05 PM 42.5778 -73.9656 360° North 269 310 5,100 -1,339 Descending Boston Center
Thu 04:54:05 PM 42.6528 -73.9672 359° North 263 303 4,000 -992 Descending Boston Center
Thu 04:55:06 PM 42.7258 -73.9550 North 266 306 3,100 -885 Descending Boston Center

Login

Don't have an account? Register now (free) for customized features, flight alerts, and more!